^^
Your Local Weather - Clay, NY Station Historical Data
Daily Summary for September 20, 2017 Units:  English    Metric   Both
« Previous Day
Next Day »
Daily Weekly Monthly Yearly Custom
  High: Low: Average:
Temperature: 80.5 °F 56.3 °F 67.5 °F
Dew Point: 67.6 °F 54.9 °F 61.4 °F
Humidity: 95% 56% 82%
Wind Speed: 3.0mph 0.0mph 0.5mph
Wind Gust: 6.0mph - -
Wind- - WSW
Pressure: 29.99 in 29.92 in -
Precipitation: 0.00 in    
Historical Graphs
 
 
Tabular Data for September 20, 2017
Time Temperature Dew Point Pressure Wind Wind Speed Wind Gust Humidity Rainfall Rate (Hourly) solar
00:02 61.6 °F 59.6 °F 29.94 in Calm     93% 0.00 in 0 W/m2
00:08 61.5 °F 59.5 °F 29.94 in Calm     93% 0.00 in 0 W/m2
00:10 61.5 °F 59.5 °F 29.94 in Calm     93% 0.00 in 0 W/m2
00:16 61.5 °F 59.5 °F 29.94 in Calm     93% 0.00 in 0 W/m2
00:22 61.4 °F 59.4 °F 29.94 in Calm     93% 0.00 in 0 W/m2
00:28 61.3 °F 59.3 °F 29.94 in Calm     93% 0.00 in 0 W/m2
00:34 61.2 °F 59.2 °F 29.94 in Calm     93% 0.00 in 0 W/m2
00:40 61.1 °F 59.1 °F 29.94 in Calm     93% 0.00 in 0 W/m2
00:46 60.9 °F 58.9 °F 29.94 in Calm     93% 0.00 in 0 W/m2
00:52 60.8 °F 58.8 °F 29.94 in Calm     93% 0.00 in 0 W/m2
00:58 60.7 °F 58.7 °F 29.94 in Calm     93% 0.00 in 0 W/m2
01:04 60.7 °F 58.7 °F 29.94 in Calm     93% 0.00 in 0 W/m2
01:10 60.7 °F 58.7 °F 29.94 in Calm     93% 0.00 in 0 W/m2
01:16 60.6 °F 58.6 °F 29.95 in Calm     93% 0.00 in 0 W/m2
01:22 60.6 °F 58.6 °F 29.94 in Calm     93% 0.00 in 0 W/m2
01:28 60.5 °F 58.5 °F 29.94 in Calm     93% 0.00 in 0 W/m2
01:34 60.4 °F 58.4 °F 29.94 in Calm     93% 0.00 in 0 W/m2
01:40 60.3 °F 58.6 °F 29.94 in Calm     94% 0.00 in 0 W/m2
01:46 60.4 °F 58.7 °F 29.95 in Calm     94% 0.00 in 0 W/m2
01:52 60.4 °F 58.7 °F 29.95 in Calm     94% 0.00 in 0 W/m2
01:58 60.3 °F 58.3 °F 29.95 in Calm     93% 0.00 in 0 W/m2
02:04 60.1 °F 58.1 °F 29.94 in Calm     93% 0.00 in 0 W/m2
02:10 59.8 °F 58.1 °F 29.95 in Calm     94% 0.00 in 0 W/m2
02:16 59.7 °F 58.0 °F 29.94 in Calm     94% 0.00 in 0 W/m2
02:22 59.7 °F 58.0 °F 29.94 in Calm     94% 0.00 in 0 W/m2
02:28 59.7 °F 58.0 °F 29.94 in Calm     94% 0.00 in 0 W/m2
02:34 59.6 °F 57.9 °F 29.94 in Calm     94% 0.00 in 0 W/m2
02:40 59.5 °F 57.8 °F 29.94 in Calm     94% 0.00 in 0 W/m2
02:46 59.5 °F 57.8 °F 29.94 in Calm     94% 0.00 in 0 W/m2
02:52 59.2 °F 57.5 °F 29.94 in Calm     94% 0.00 in 0 W/m2
02:58 59.1 °F 57.4 °F 29.94 in Calm     94% 0.00 in 0 W/m2
03:04 59.1 °F 57.4 °F 29.94 in Calm     94% 0.00 in 0 W/m2
03:10 59.2 °F 57.5 °F 29.94 in Calm     94% 0.00 in 0 W/m2
03:16 59.2 °F 57.5 °F 29.94 in Calm     94% 0.00 in 0 W/m2
03:22 59.1 °F 57.4 °F 29.94 in Calm     94% 0.00 in 0 W/m2
03:28 59.0 °F 57.3 °F 29.94 in Calm     94% 0.00 in 0 W/m2
03:34 58.9 °F 57.2 °F 29.94 in Calm     94% 0.00 in 0 W/m2
03:40 58.7 °F 57.0 °F 29.94 in Calm     94% 0.00 in 0 W/m2
03:46 58.7 °F 57.0 °F 29.94 in Calm     94% 0.00 in 0 W/m2
03:52 58.7 °F 57.0 °F 29.94 in Calm     94% 0.00 in 0 W/m2
03:58 58.6 °F 56.9 °F 29.94 in Calm     94% 0.00 in 0 W/m2
04:04 58.8 °F 57.1 °F 29.94 in Calm     94% 0.00 in 0 W/m2
04:10 59.1 °F 57.4 °F 29.94 in Calm     94% 0.00 in 0 W/m2
04:16 59.1 °F 57.4 °F 29.94 in Calm     94% 0.00 in 0 W/m2
04:22 59.1 °F 57.4 °F 29.95 in Calm     94% 0.00 in 0 W/m2
04:28 59.0 °F 57.3 °F 29.94 in Calm     94% 0.00 in 0 W/m2
04:36 58.8 °F 57.1 °F 29.95 in Calm     94% 0.00 in 0 W/m2
04:42 58.6 °F 56.9 °F 29.95 in Calm     94% 0.00 in 0 W/m2
04:48 58.6 °F 56.9 °F 29.95 in Calm     94% 0.00 in 0 W/m2
04:54 58.7 °F 57.0 °F 29.94 in Calm     94% 0.00 in 0 W/m2
05:00 58.6 °F 56.9 °F 29.94 in Calm     94% 0.00 in 0 W/m2
05:06 58.4 °F 56.7 °F 29.94 in Calm     94% 0.00 in 0 W/m2
05:12 58.4 °F 56.7 °F 29.94 in Calm     94% 0.00 in 0 W/m2
05:18 58.2 °F 56.5 °F 29.95 in Calm     94% 0.00 in 0 W/m2
05:24 58.1 °F 56.4 °F 29.95 in Calm     94% 0.00 in 0 W/m2
05:30 57.9 °F 56.2 °F 29.95 in Calm     94% 0.00 in 0 W/m2
05:36 58.0 °F 56.6 °F 29.95 in Calm     95% 0.00 in 0 W/m2
05:42 57.9 °F 56.2 °F 29.95 in Calm     94% 0.00 in 0 W/m2
05:48 57.8 °F 56.1 °F 29.95 in Calm     94% 0.00 in 0 W/m2
05:56 57.8 °F 56.1 °F 29.94 in Calm     94% 0.00 in 0 W/m2
06:02 57.6 °F 56.2 °F 29.95 in Calm     95% 0.00 in 0 W/m2
06:08 57.4 °F 56.0 °F 29.95 in Calm     95% 0.00 in 0 W/m2
06:14 57.3 °F 55.6 °F 29.95 in Calm     94% 0.00 in 0 W/m2
06:20 57.1 °F 55.4 °F 29.96 in Calm     94% 0.00 in 0 W/m2
06:26 56.9 °F 55.2 °F 29.96 in Calm     94% 0.00 in 0 W/m2
06:32 56.8 °F 55.4 °F 29.96 in Calm     95% 0.00 in 0 W/m2
06:38 56.7 °F 55.3 °F 29.96 in Calm     95% 0.00 in 0 W/m2
06:44 56.6 °F 54.9 °F 29.95 in Calm     94% 0.00 in 0 W/m2
06:50 56.6 °F 54.9 °F 29.96 in Calm     94% 0.00 in 0 W/m2
06:56 56.6 °F 55.2 °F 29.96 in Calm     95% 0.00 in 0 W/m2
07:02 56.4 °F 55.0 °F 29.96 in Calm     95% 0.00 in 5 W/m2
07:08 56.3 °F 54.9 °F 29.96 in Calm     95% 0.00 in 7 W/m2
07:14 56.3 °F 54.9 °F 29.97 in Calm     95% 0.00 in 12 W/m2
07:20 56.4 °F 55.0 °F 29.97 in Calm     95% 0.00 in 18 W/m2
07:26 56.4 °F 55.0 °F 29.97 in Calm     95% 0.00 in 21 W/m2
07:32 56.5 °F 55.1 °F 29.97 in Calm     95% 0.00 in 26 W/m2
07:38 56.6 °F 55.2 °F 29.97 in Calm     95% 0.00 in 30 W/m2
07:44 56.8 °F 55.4 °F 29.97 in Calm     95% 0.00 in 32 W/m2
07:50 57.0 °F 55.6 °F 29.97 in Calm     95% 0.00 in 35 W/m2
07:56 57.3 °F 55.9 °F 29.98 in Calm     95% 0.00 in 40 W/m2
08:02 57.9 °F 56.5 °F 29.98 in Calm     95% 0.00 in 40 W/m2
08:10 58.3 °F 56.9 °F 29.98 in Calm     95% 0.00 in 53 W/m2
08:16 58.9 °F 57.5 °F 29.98 in Calm     95% 0.00 in 98 W/m2
08:22 59.7 °F 58.3 °F 29.98 in Calm     95% 0.00 in 54 W/m2
08:28 60.0 °F 58.6 °F 29.98 in Calm     95% 0.00 in 58 W/m2
08:34 60.5 °F 59.1 °F 29.98 in Calm   1.0 mph 95% 0.00 in 79 W/m2
08:40 60.9 °F 59.5 °F 29.98 in Calm     95% 0.00 in 56 W/m2
08:46 61.2 °F 59.8 °F 29.98 in Calm     95% 0.00 in 65 W/m2
08:52 61.6 °F 60.2 °F 29.98 in Calm     95% 0.00 in 74 W/m2
08:58 61.9 °F 60.5 °F 29.99 in Calm   2.0 mph 95% 0.00 in 83 W/m2
09:04 62.3 °F 60.8 °F 29.99 in Calm     95% 0.00 in 65 W/m2
09:10 62.8 °F 61.3 °F 29.99 in Calm   1.0 mph 95% 0.00 in 65 W/m2
09:16 63.2 °F 61.7 °F 29.99 in SSE 1.0 mph 3.0 mph 95% 0.00 in 97 W/m2
09:22 63.6 °F 61.8 °F 29.99 in SSE 1.0 mph 1.0 mph 94% 0.00 in 121 W/m2
09:28 63.9 °F 62.1 °F 29.99 in SSE 1.0 mph 2.0 mph 94% 0.00 in 63 W/m2
09:34 64.6 °F 62.5 °F 29.98 in Calm   1.0 mph 93% 0.00 in 232 W/m2
09:40 65.4 °F 62.7 °F 29.98 in SSE 1.0 mph 1.0 mph 91% 0.00 in 146 W/m2
09:46 66.4 °F 62.1 °F 29.99 in SSE 1.0 mph 1.0 mph 86% 0.00 in 431 W/m2
09:52 67.9 °F 62.9 °F 29.98 in Calm     84% 0.00 in 455 W/m2
09:58 68.3 °F 62.2 °F 29.98 in Calm   1.0 mph 81% 0.00 in 475 W/m2
10:04 69.3 °F 63.6 °F 29.98 in Calm   1.0 mph 82% 0.00 in 499 W/m2
10:16 71.1 °F 63.5 °F 29.98 in Calm     77% 0.00 in 545 W/m2
10:22 71.1 °F 63.5 °F 29.98 in Calm     77% 0.00 in 561 W/m2
10:28 71.9 °F 63.2 °F 29.99 in Calm     74% 0.00 in 575 W/m2
10:34 71.5 °F 62.8 °F 29.98 in SSE 1.0 mph 2.0 mph 74% 0.00 in 587 W/m2
10:40 71.6 °F 62.5 °F 29.98 in SSE 1.0 mph 1.0 mph 73% 0.00 in 599 W/m2
10:46 71.9 °F 62.4 °F 29.98 in Calm   1.0 mph 72% 0.00 in 612 W/m2
10:52 72.7 °F 63.5 °F 29.98 in Calm     73% 0.00 in 626 W/m2
10:58 73.8 °F 64.2 °F 29.98 in Calm   1.0 mph 72% 0.00 in 642 W/m2
11:08 74.6 °F 65.4 °F 29.97 in Calm   1.0 mph 73% 0.00 in 656 W/m2
11:14 74.9 °F 64.9 °F 29.97 in NNW 1.0 mph 2.0 mph 71% 0.00 in 666 W/m2
11:20 75.0 °F 63.3 °F 29.98 in NNW 1.0 mph 1.0 mph 67% 0.00 in 675 W/m2
11:26 75.3 °F 64.0 °F 29.98 in Calm   3.0 mph 68% 0.00 in 684 W/m2
11:32 75.6 °F 65.1 °F 29.97 in South 1.0 mph 1.0 mph 70% 0.00 in 694 W/m2
11:44 76.1 °F 65.2 °F 29.97 in NE 1.0 mph 4.0 mph 69% 0.00 in 703 W/m2
11:50 75.8 °F 64.1 °F 29.97 in North 2.0 mph 2.0 mph 67% 0.00 in 710 W/m2
11:56 76.3 °F 64.5 °F 29.96 in North 2.0 mph 3.0 mph 67% 0.00 in 715 W/m2
12:02 76.8 °F 65.9 °F 29.96 in NW 1.0 mph 5.0 mph 69% 0.00 in 724 W/m2
12:08 77.3 °F 65.1 °F 29.96 in NW 1.0 mph 5.0 mph 66% 0.00 in 729 W/m2
12:14 77.0 °F 63.9 °F 29.96 in NNW 1.0 mph 4.0 mph 64% 0.00 in 733 W/m2
12:20 76.4 °F 63.8 °F 29.96 in North 2.0 mph 2.0 mph 65% 0.00 in 733 W/m2
12:26 76.6 °F 63.5 °F 29.96 in NW 2.0 mph 4.0 mph 64% 0.00 in 738 W/m2
12:32 76.7 °F 63.6 °F 29.96 in North 2.0 mph 2.0 mph 64% 0.00 in 740 W/m2
12:38 76.7 °F 63.2 °F 29.96 in North 2.0 mph 3.0 mph 63% 0.00 in 738 W/m2
12:44 77.4 °F 63.8 °F 29.96 in NW 2.0 mph 3.0 mph 63% 0.00 in 745 W/m2
12:50 77.3 °F 63.3 °F 29.96 in WNW 1.0 mph 3.0 mph 62% 0.00 in 745 W/m2
12:56 77.2 °F 63.6 °F 29.96 in NNW 2.0 mph 3.0 mph 63% 0.00 in 712 W/m2
13:02 78.8 °F 65.1 °F 29.96 in Calm   1.0 mph 63% 0.00 in 714 W/m2
13:08 78.8 °F 65.1 °F 29.96 in West 1.0 mph 2.0 mph 63% 0.00 in 700 W/m2
13:14 79.0 °F 65.8 °F 29.96 in West 1.0 mph 1.0 mph 64% 0.00 in 747 W/m2
13:20 78.9 °F 64.8 °F 29.95 in NE 1.0 mph 1.0 mph 62% 0.00 in 749 W/m2
13:26 78.8 °F 64.7 °F 29.95 in West 2.0 mph 3.0 mph 62% 0.00 in 745 W/m2
13:32 78.8 °F 66.5 °F 29.95 in NW 1.0 mph 1.0 mph 66% 0.00 in 756 W/m2
13:38 79.3 °F 64.7 °F 29.94 in North 1.0 mph 1.0 mph 61% 0.00 in 751 W/m2
13:44 79.6 °F 66.3 °F 29.94 in NNW 2.0 mph 2.0 mph 64% 0.00 in 751 W/m2
13:50 80.0 °F 65.8 °F 29.94 in NNW 1.0 mph 3.0 mph 62% 0.00 in 751 W/m2
13:52 79.8 °F 65.6 °F 29.94 in North 2.0 mph 5.0 mph 62% 0.00 in 735 W/m2
13:58 79.2 °F 64.6 °F 29.94 in NNE 3.0 mph 5.0 mph 61% 0.00 in 751 W/m2
14:04 79.6 °F 65.0 °F 29.94 in NW 2.0 mph 3.0 mph 61% 0.00 in 742 W/m2
14:10 80.1 °F 65.0 °F 29.93 in NW 2.0 mph 3.0 mph 60% 0.00 in 722 W/m2
14:16 80.0 °F 64.9 °F 29.93 in West 2.0 mph 3.0 mph 60% 0.00 in 696 W/m2
14:22 80.2 °F 64.1 °F 29.93 in NW 2.0 mph 3.0 mph 58% 0.00 in 687 W/m2
14:28 80.1 °F 63.5 °F 29.93 in NW 2.0 mph 3.0 mph 57% 0.00 in 675 W/m2
14:34 80.2 °F 65.1 °F 29.93 in NNW 3.0 mph 5.0 mph 60% 0.00 in 663 W/m2
14:40 79.8 °F 63.7 °F 29.93 in North 3.0 mph 3.0 mph 58% 0.00 in 661 W/m2
14:46 80.5 °F 67.6 °F 29.93 in NW 2.0 mph 3.0 mph 65% 0.00 in 643 W/m2
14:52 79.7 °F 64.6 °F 29.93 in North 2.0 mph 6.0 mph 60% 0.00 in 631 W/m2
14:58 80.0 °F 63.9 °F 29.93 in North 3.0 mph 6.0 mph 58% 0.00 in 626 W/m2
15:04 79.8 °F 62.7 °F 29.93 in NNW 3.0 mph 4.0 mph 56% 0.00 in 575 W/m2
15:10 79.1 °F 64.0 °F 29.93 in NW 3.0 mph 3.0 mph 60% 0.00 in 592 W/m2
15:16 79.8 °F 65.2 °F 29.93 in NNW 2.0 mph 3.0 mph 61% 0.00 in 584 W/m2
15:22 79.7 °F 62.6 °F 29.93 in NNW 2.0 mph 3.0 mph 56% 0.00 in 571 W/m2
15:28 79.4 °F 63.8 °F 29.93 in NW 3.0 mph 5.0 mph 59% 0.00 in 554 W/m2
15:34 79.7 °F 64.6 °F 29.93 in NW 2.0 mph 3.0 mph 60% 0.00 in 540 W/m2
15:40 79.8 °F 63.2 °F 29.92 in North 2.0 mph 2.0 mph 57% 0.00 in 520 W/m2
15:46 79.4 °F 63.3 °F 29.93 in NW 3.0 mph 6.0 mph 58% 0.00 in 510 W/m2
15:52 79.2 °F 63.6 °F 29.93 in North 3.0 mph 3.0 mph 59% 0.00 in 485 W/m2
15:58 79.2 °F 65.1 °F 29.92 in WNW 2.0 mph 3.0 mph 62% 0.00 in 471 W/m2
16:04 78.4 °F 65.2 °F 29.92 in WNW 3.0 mph 5.0 mph 64% 0.00 in 454 W/m2
16:10 78.6 °F 65.4 °F 29.93 in NW 2.0 mph 5.0 mph 64% 0.00 in 438 W/m2
16:16 78.9 °F 65.2 °F 29.93 in North 2.0 mph 5.0 mph 63% 0.00 in 424 W/m2
16:22 79.0 °F 66.2 °F 29.93 in North 2.0 mph 4.0 mph 65% 0.00 in 404 W/m2
16:28 79.0 °F 65.8 °F 29.93 in NNW 2.0 mph 4.0 mph 64% 0.00 in 385 W/m2
16:34 79.0 °F 67.1 °F 29.93 in NNW 2.0 mph 3.0 mph 67% 0.00 in 369 W/m2
16:40 78.7 °F 66.4 °F 29.93 in NNW 1.0 mph 1.0 mph 66% 0.00 in 352 W/m2
16:46 78.9 °F 66.1 °F 29.93 in NNW 1.0 mph 2.0 mph 65% 0.00 in 329 W/m2
16:52 78.2 °F 66.8 °F 29.93 in NNW 2.0 mph 4.0 mph 68% 0.00 in 316 W/m2
16:58 78.0 °F 66.2 °F 29.92 in NNW 2.0 mph 4.0 mph 67% 0.00 in 295 W/m2
17:04 77.8 °F 66.0 °F 29.92 in North 2.0 mph 4.0 mph 67% 0.00 in 276 W/m2
17:10 78.2 °F 66.8 °F 29.93 in North 1.0 mph 1.0 mph 68% 0.00 in 255 W/m2
17:16 78.0 °F 67.4 °F 29.93 in Calm   1.0 mph 70% 0.00 in 237 W/m2
17:22 77.6 °F 66.6 °F 29.93 in Calm   1.0 mph 69% 0.00 in 220 W/m2
17:28 77.2 °F 66.7 °F 29.93 in North 1.0 mph 1.0 mph 70% 0.00 in 200 W/m2
17:34 77.1 °F 66.1 °F 29.93 in NW 1.0 mph 1.0 mph 69% 0.00 in 186 W/m2
17:40 76.6 °F 65.7 °F 29.93 in NW 1.0 mph 1.0 mph 69% 0.00 in 81 W/m2
17:46 76.4 °F 65.5 °F 29.93 in West 1.0 mph 1.0 mph 69% 0.00 in 95 W/m2
17:52 76.3 °F 65.8 °F 29.93 in NNW 1.0 mph 1.0 mph 70% 0.00 in 104 W/m2
17:58 76.2 °F 65.7 °F 29.93 in West 1.0 mph 1.0 mph 70% 0.00 in 113 W/m2
18:04 75.9 °F 65.4 °F 29.93 in Calm     70% 0.00 in 56 W/m2
18:10 75.6 °F 65.1 °F 29.93 in Calm     70% 0.00 in 49 W/m2
18:16 75.2 °F 65.1 °F 29.93 in Calm     71% 0.00 in 40 W/m2
18:22 74.9 °F 65.3 °F 29.93 in Calm     72% 0.00 in 35 W/m2
18:28 74.5 °F 65.3 °F 29.93 in Calm     73% 0.00 in 32 W/m2
18:34 74.2 °F 65.0 °F 29.93 in Calm     73% 0.00 in 26 W/m2
18:40 73.7 °F 65.3 °F 29.94 in Calm     75% 0.00 in 23 W/m2
18:46 73.3 °F 64.9 °F 29.94 in Calm     75% 0.00 in 18 W/m2
18:52 72.8 °F 64.8 °F 29.94 in Calm     76% 0.00 in 12 W/m2
18:58 72.4 °F 64.8 °F 29.93 in Calm     77% 0.00 in 7 W/m2
19:04 72.0 °F 64.4 °F 29.94 in Calm     77% 0.00 in 5 W/m2
19:10 71.6 °F 64.4 °F 29.94 in Calm   2.0 mph 78% 0.00 in 0 W/m2
19:20 71.1 °F 64.3 °F 29.94 in Calm     79% 0.00 in 0 W/m2
19:26 70.7 °F 64.2 °F 29.94 in Calm     80% 0.00 in 0 W/m2
19:32 70.4 °F 63.9 °F 29.94 in Calm     80% 0.00 in 0 W/m2
19:38 69.9 °F 63.8 °F 29.94 in Calm     81% 0.00 in 0 W/m2
19:50 69.4 °F 63.7 °F 29.94 in Calm     82% 0.00 in 0 W/m2
19:56 69.1 °F 63.4 °F 29.94 in Calm     82% 0.00 in 0 W/m2
20:02 68.8 °F 63.4 °F 29.94 in Calm     83% 0.00 in 0 W/m2
20:08 68.5 °F 63.1 °F 29.94 in Calm     83% 0.00 in 0 W/m2
20:14 68.2 °F 63.2 °F 29.94 in Calm     84% 0.00 in 0 W/m2
20:20 67.9 °F 62.9 °F 29.94 in Calm     84% 0.00 in 0 W/m2
20:26 67.7 °F 63.0 °F 29.95 in Calm     85% 0.00 in 0 W/m2
20:32 67.6 °F 62.9 °F 29.95 in Calm     85% 0.00 in 0 W/m2
20:38 67.4 °F 63.1 °F 29.94 in Calm     86% 0.00 in 0 W/m2
20:44 67.3 °F 63.3 °F 29.94 in Calm     87% 0.00 in 0 W/m2
20:50 67.2 °F 63.2 °F 29.95 in Calm     87% 0.00 in 0 W/m2
20:56 67.0 °F 63.0 °F 29.95 in Calm     87% 0.00 in 0 W/m2
21:02 66.9 °F 63.2 °F 29.96 in Calm     88% 0.00 in 0 W/m2
21:08 66.8 °F 63.1 °F 29.96 in Calm   1.0 mph 88% 0.00 in 0 W/m2
21:14 66.7 °F 63.0 °F 29.96 in Calm     88% 0.00 in 0 W/m2
21:20 66.5 °F 63.2 °F 29.96 in Calm     89% 0.00 in 0 W/m2
21:26 66.4 °F 63.1 °F 29.96 in Calm     89% 0.00 in 0 W/m2
21:32 66.2 °F 62.9 °F 29.96 in Calm     89% 0.00 in 0 W/m2
21:38 65.9 °F 62.6 °F 29.96 in Calm     89% 0.00 in 0 W/m2
21:44 65.9 °F 62.9 °F 29.97 in Calm     90% 0.00 in 0 W/m2
21:50 65.9 °F 62.9 °F 29.97 in Calm     90% 0.00 in 0 W/m2
21:56 65.7 °F 62.7 °F 29.97 in Calm     90% 0.00 in 0 W/m2
22:02 65.5 °F 62.5 °F 29.97 in Calm     90% 0.00 in 0 W/m2
22:08 65.4 °F 62.7 °F 29.97 in Calm     91% 0.00 in 0 W/m2
22:14 65.3 °F 62.6 °F 29.97 in Calm     91% 0.00 in 0 W/m2
22:20 65.1 °F 62.4 °F 29.97 in Calm     91% 0.00 in 0 W/m2
22:26 65.1 °F 62.4 °F 29.97 in Calm     91% 0.00 in 0 W/m2
22:32 65.2 °F 62.5 °F 29.97 in Calm     91% 0.00 in 0 W/m2
22:38 65.1 °F 62.4 °F 29.98 in Calm     91% 0.00 in 0 W/m2
22:44 64.9 °F 62.2 °F 29.98 in Calm     91% 0.00 in 0 W/m2
22:50 64.8 °F 62.4 °F 29.98 in Calm     92% 0.00 in 0 W/m2
22:56 64.6 °F 62.2 °F 29.98 in Calm     92% 0.00 in 0 W/m2
23:02 64.5 °F 62.1 °F 29.98 in Calm     92% 0.00 in 0 W/m2
23:08 64.3 °F 61.9 °F 29.98 in Calm     92% 0.00 in 0 W/m2
23:16 64.0 °F 61.6 °F 29.98 in Calm     92% 0.00 in 0 W/m2
23:20 63.8 °F 61.4 °F 29.98 in Calm     92% 0.00 in 0 W/m2
23:22 63.8 °F 61.4 °F 29.98 in Calm     92% 0.00 in 0 W/m2
23:28 63.5 °F 61.1 °F 29.98 in Calm     92% 0.00 in 0 W/m2
23:30 63.5 °F 61.1 °F 29.98 in Calm     92% 0.00 in 0 W/m2
23:36 63.3 °F 60.9 °F 29.98 in Calm     92% 0.00 in 0 W/m2
23:42 63.3 °F 60.9 °F 29.98 in Calm     92% 0.00 in 0 W/m2
23:48 63.2 °F 60.8 °F 29.98 in Calm     92% 0.00 in 0 W/m2
23:52 63.1 °F 60.7 °F 29.98 in Calm     92% 0.00 in 0 W/m2
Country Meadow, Clay, NY, USA
Compliments of Weather Underground - 2 mb